Time;durP1;ratioP1;P1;durP2;ratioP2;P2;SDS_P1;SDS_P2;PMS_P1;PMS_P2;Temp;Humidity;BMP_temperature;BMP_pressure;BME280_temperature;BME280_humidity;BME280_pressure;Samples;Min_cycle;Max_cycle;Signal;HPM_P1;HPM_P2
2021/11/21 00:02:03;;;;;;;14.17;9.67;;;10.40;99.90;;;;;;5017035;28;20238;-71
2021/11/21 00:04:30;;;;;;;12.67;9.73;;;10.30;99.90;;;;;;5024465;28;20669;-71
2021/11/21 00:06:57;;;;;;;13.00;10.20;;;10.30;99.90;;;;;;5021788;28;20208;-71
2021/11/21 00:09:24;;;;;;;12.43;9.73;;;10.40;99.90;;;;;;5016882;28;20222;-71
2021/11/21 00:11:51;;;;;;;13.97;9.57;;;10.30;99.90;;;;;;5032537;28;20257;-70
2021/11/21 00:14:19;;;;;;;11.27;9.20;;;10.30;99.90;;;;;;5017098;28;20215;-71
2021/11/21 00:16:46;;;;;;;11.27;9.83;;;10.30;99.90;;;;;;5016339;28;20284;-71
2021/11/21 00:19:13;;;;;;;11.80;9.03;;;10.30;99.90;;;;;;5023031;28;20207;-71
2021/11/21 00:21:40;;;;;;;13.27;9.67;;;10.30;99.90;;;;;;5035569;28;20305;-70
2021/11/21 00:24:07;;;;;;;13.03;9.77;;;10.30;99.90;;;;;;5028252;28;20594;-69
2021/11/21 00:26:34;;;;;;;9.47;8.47;;;10.30;99.90;;;;;;5023980;28;20633;-69
2021/11/21 00:29:01;;;;;;;11.53;8.83;;;10.30;99.90;;;;;;5015032;28;20286;-70
2021/11/21 00:31:30;;;;;;;12.60;8.40;;;10.30;99.90;;;;;;5020569;28;20655;-69
2021/11/21 00:33:57;;;;;;;10.33;9.13;;;10.30;99.90;;;;;;5022329;28;20221;-69
2021/11/21 00:36:24;;;;;;;10.83;8.73;;;10.30;99.90;;;;;;5027108;28;20680;-69
2021/11/21 00:38:51;;;;;;;10.17;8.33;;;10.30;99.90;;;;;;5028725;28;20297;-69
2021/11/21 00:41:18;;;;;;;14.73;9.13;;;10.30;99.90;;;;;;5015116;28;20208;-70
2021/11/21 00:43:48;;;;;;;10.47;8.57;;;10.20;99.90;;;;;;5016551;28;20745;-68
2021/11/21 00:46:15;;;;;;;11.07;9.30;;;10.30;99.90;;;;;;5015609;28;20590;-69
2021/11/21 00:48:44;;;;;;;12.47;9.17;;;10.30;99.90;;;;;;5015619;28;20210;-69
2021/11/21 00:51:11;;;;;;;12.37;9.47;;;10.30;99.90;;;;;;5019578;28;20211;-69
2021/11/21 00:53:42;;;;;;;9.83;8.67;;;10.20;99.90;;;;;;5027690;28;20216;-69
2021/11/21 00:56:09;;;;;;;10.73;8.67;;;10.20;99.90;;;;;;5022660;28;20261;-69
2021/11/21 00:58:37;;;;;;;13.47;10.10;;;10.30;99.90;;;;;;5013539;28;20318;-69
2021/11/21 01:01:06;;;;;;;10.80;8.87;;;10.20;99.90;;;;;;5013354;28;20257;-67
2021/11/21 01:03:33;;;;;;;11.33;8.87;;;10.20;99.90;;;;;;5018033;28;20664;-70
2021/11/21 01:06:02;;;;;;;12.87;9.67;;;10.20;99.90;;;;;;5033861;28;20214;-69
2021/11/21 01:08:29;;;;;;;10.93;8.63;;;10.20;99.90;;;;;;5017978;28;20235;-67
2021/11/21 01:11:00;;;;;;;11.97;9.10;;;10.20;99.90;;;;;;5022693;28;20249;-68
2021/11/21 01:13:28;;;;;;;11.77;9.67;;;10.30;99.90;;;;;;5031058;28;20235;-70
2021/11/21 01:15:56;;;;;;;12.43;9.37;;;10.30;99.90;;;;;;5034847;28;20307;-68
2021/11/21 01:18:23;;;;;;;10.77;9.33;;;10.30;99.90;;;;;;5021934;28;20251;-68
2021/11/21 01:20:51;;;;;;;11.90;8.87;;;10.20;99.90;;;;;;5032438;28;20219;-68
2021/11/21 01:23:19;;;;;;;11.90;9.77;;;10.30;99.90;;;;;;5030131;28;20614;-69
2021/11/21 01:25:48;;;;;;;13.40;10.17;;;10.20;99.90;;;;;;5031994;28;20313;-68
2021/11/21 01:28:16;;;;;;;14.23;10.53;;;10.20;99.90;;;;;;5023848;28;20208;-69
2021/11/21 01:30:44;;;;;;;10.67;9.03;;;10.20;99.90;;;;;;5018162;28;20638;-70
2021/11/21 01:33:12;;;;;;;10.87;8.73;;;10.20;99.90;;;;;;5031593;28;20298;-69
2021/11/21 01:35:40;;;;;;;10.70;9.10;;;10.20;99.90;;;;;;5018671;28;20271;-69
2021/11/21 01:38:07;;;;;;;13.50;10.33;;;10.20;99.90;;;;;;5022209;28;20309;-69
2021/11/21 01:40:37;;;;;;;13.97;10.07;;;10.20;99.90;;;;;;5026164;28;20203;-69
2021/11/21 01:43:06;;;;;;;14.30;10.07;;;10.20;99.90;;;;;;5029775;28;20628;-69
2021/11/21 01:45:33;;;;;;;12.60;10.30;;;10.20;99.90;;;;;;5020712;28;20271;-68
2021/11/21 01:48:01;;;;;;;21.17;15.13;;;10.20;99.90;;;;;;5033288;28;20210;-68
2021/11/21 01:50:30;;;;;;;19.20;14.87;;;10.20;99.90;;;;;;5025176;28;20231;-68
2021/11/21 01:52:58;;;;;;;19.80;15.60;;;10.20;99.90;;;;;;5027786;28;20241;-68
2021/11/21 01:55:25;;;;;;;18.87;14.67;;;10.10;99.90;;;;;;5014707;28;20211;-70
2021/11/21 01:57:56;;;;;;;17.97;13.47;;;10.10;99.90;;;;;;5014583;28;20290;-68
2021/11/21 02:00:25;;;;;;;17.90;14.33;;;10.10;99.90;;;;;;5016573;28;20379;-69
2021/11/21 02:02:52;;;;;;;15.03;11.80;;;10.10;99.90;;;;;;5018496;28;20309;-69
2021/11/21 02:05:19;;;;;;;15.67;11.27;;;10.10;99.90;;;;;;5018327;28;20207;-70
2021/11/21 02:07:47;;;;;;;15.60;10.07;;;10.10;99.90;;;;;;5019162;28;20286;-69
2021/11/21 02:10:17;;;;;;;11.40;8.80;;;10.10;99.90;;;;;;5025257;28;20398;-67
2021/11/21 02:12:44;;;;;;;13.37;9.20;;;10.10;99.90;;;;;;5035405;28;20246;-68
2021/11/21 02:15:14;;;;;;;13.47;9.20;;;10.10;99.90;;;;;;5019769;28;20234;-69
2021/11/21 02:17:42;;;;;;;12.93;9.30;;;10.10;99.90;;;;;;5018731;28;20645;-69
2021/11/21 02:20:11;;;;;;;11.03;8.77;;;10.10;99.90;;;;;;5018272;28;20207;-70
2021/11/21 02:22:41;;;;;;;11.27;8.77;;;10.10;99.90;;;;;;5019819;28;20243;-69
2021/11/21 02:25:08;;;;;;;9.93;8.20;;;10.10;99.90;;;;;;5024562;28;20301;-69
2021/11/21 02:27:36;;;;;;;11.07;8.37;;;10.10;99.90;;;;;;5023859;28;20206;-69
2021/11/21 02:30:05;;;;;;;10.43;8.40;;;10.00;99.90;;;;;;5036795;28;20210;-69
2021/11/21 02:32:32;;;;;;;13.63;8.73;;;10.00;99.90;;;;;;5037886;28;20249;-69
2021/11/21 02:34:59;;;;;;;11.17;9.37;;;10.00;99.90;;;;;;5035946;28;20218;-68
2021/11/21 02:37:26;;;;;;;15.67;9.67;;;10.00;99.90;;;;;;5023662;28;20230;-68
2021/11/21 02:39:55;;;;;;;12.43;9.00;;;10.00;99.90;;;;;;5032158;28;20579;-68
2021/11/21 02:42:27;;;;;;;11.00;8.90;;;10.00;99.90;;;;;;5024758;28;20254;-68
2021/11/21 02:44:55;;;;;;;11.93;8.90;;;10.00;99.90;;;;;;5029933;28;20286;-68
2021/11/21 02:47:22;;;;;;;11.13;8.80;;;10.00;99.90;;;;;;5018757;28;20203;-69
2021/11/21 02:49:50;;;;;;;11.60;9.40;;;10.00;99.90;;;;;;5022195;28;20231;-69
2021/11/21 02:52:17;;;;;;;11.53;8.83;;;10.00;99.90;;;;;;5020824;28;20408;-70
2021/11/21 02:54:53;;;;;;;11.87;9.57;;;10.00;99.90;;;;;;5028045;28;20266;-69
2021/11/21 02:57:23;;;;;;;13.73;9.57;;;10.00;99.90;;;;;;5036842;28;20256;-69
2021/11/21 02:59:51;;;;;;;12.93;8.83;;;10.00;99.90;;;;;;5020681;28;20274;-68
2021/11/21 03:02:19;;;;;;;11.10;8.80;;;10.00;99.90;;;;;;5020688;28;20294;-69
2021/11/21 03:04:48;;;;;;;15.50;9.83;;;10.00;99.90;;;;;;5016978;28;20572;-69
2021/11/21 03:07:15;;;;;;;12.70;9.10;;;9.90;99.90;;;;;;5021606;28;20207;-68
2021/11/21 03:09:42;;;;;;;13.40;9.50;;;9.90;99.90;;;;;;5016914;28;20246;-68
2021/11/21 03:12:10;;;;;;;12.27;9.43;;;9.90;99.90;;;;;;5024423;28;20258;-70
2021/11/21 03:14:38;;;;;;;13.13;9.67;;;9.90;99.90;;;;;;5026813;28;20389;-69
2021/11/21 03:17:06;;;;;;;13.93;9.07;;;9.90;99.90;;;;;;5018393;28;20234;-68
2021/11/21 03:19:34;;;;;;;14.57;9.73;;;9.90;99.90;;;;;;5029695;28;20682;-67
2021/11/21 03:22:01;;;;;;;13.67;10.10;;;9.90;99.90;;;;;;5027181;28;20723;-68
2021/11/21 03:24:28;;;;;;;13.97;9.67;;;9.90;99.90;;;;;;5026946;28;20654;-68
2021/11/21 03:26:55;;;;;;;11.67;9.23;;;9.90;99.90;;;;;;5016096;28;20238;-69
2021/11/21 03:29:22;;;;;;;12.87;9.97;;;9.80;99.90;;;;;;5027181;28;20630;-68
2021/11/21 03:31:50;;;;;;;13.80;9.43;;;9.90;99.90;;;;;;5021269;28;20303;-69
2021/11/21 03:34:17;;;;;;;12.57;10.07;;;9.80;99.90;;;;;;5033644;28;20281;-68
2021/11/21 03:36:44;;;;;;;14.80;10.30;;;9.80;99.90;;;;;;5024318;28;20215;-69
2021/11/21 03:39:11;;;;;;;14.70;10.43;;;9.80;99.90;;;;;;5029755;28;20228;-68
2021/11/21 03:41:39;;;;;;;14.77;10.43;;;9.80;99.90;;;;;;5028083;28;20206;-69
2021/11/21 03:44:07;;;;;;;13.80;9.77;;;9.80;99.90;;;;;;5033022;28;20297;-69
2021/11/21 03:46:35;;;;;;;13.00;9.80;;;9.80;99.90;;;;;;5025234;28;20294;-68
2021/11/21 03:49:03;;;;;;;15.03;10.73;;;9.80;99.90;;;;;;5021258;28;20334;-69
2021/11/21 03:51:31;;;;;;;13.87;10.20;;;9.80;99.90;;;;;;5016501;28;20203;-68
2021/11/21 03:53:58;;;;;;;14.93;10.43;;;9.70;99.90;;;;;;5024641;28;20400;-69
2021/11/21 03:56:25;;;;;;;15.27;10.67;;;9.70;99.90;;;;;;5034027;28;20296;-69
2021/11/21 03:58:52;;;;;;;14.17;10.67;;;9.70;99.90;;;;;;5021504;28;20333;-69
2021/11/21 04:01:19;;;;;;;14.40;10.63;;;9.70;99.90;;;;;;5021755;28;20268;-69
2021/11/21 04:03:46;;;;;;;15.17;10.83;;;9.70;99.90;;;;;;5029203;28;20315;-69
2021/11/21 04:06:14;;;;;;;15.20;10.47;;;9.70;99.90;;;;;;5018382;28;20208;-68
2021/11/21 04:08:44;;;;;;;16.23;10.80;;;9.70;99.90;;;;;;5017964;28;20630;-68
2021/11/21 04:11:11;;;;;;;13.53;9.53;;;9.70;99.90;;;;;;5031164;28;20207;-69
2021/11/21 04:13:39;;;;;;;13.40;9.93;;;9.70;99.90;;;;;;5016204;28;20243;-69
2021/11/21 04:16:06;;;;;;;13.33;10.07;;;9.70;99.90;;;;;;5025390;28;20250;-68
2021/11/21 04:18:33;;;;;;;14.63;10.23;;;9.70;99.90;;;;;;5026172;28;20285;-69
2021/11/21 04:21:01;;;;;;;15.50;10.00;;;9.60;99.90;;;;;;5031092;28;20206;-68
2021/11/21 04:23:30;;;;;;;13.50;9.47;;;9.70;99.90;;;;;;5020406;28;20238;-69
2021/11/21 04:25:58;;;;;;;12.80;9.30;;;9.60;99.90;;;;;;5019743;28;20215;-69
2021/11/21 04:28:25;;;;;;;15.13;9.63;;;9.60;99.90;;;;;;5028851;28;20217;-68
2021/11/21 04:30:53;;;;;;;12.57;9.13;;;9.60;99.90;;;;;;5016443;28;20239;-68
2021/11/21 04:33:20;;;;;;;14.67;9.57;;;9.60;99.90;;;;;;5014289;28;20233;-68
2021/11/21 04:35:47;;;;;;;12.63;9.83;;;9.60;99.90;;;;;;5023232;28;20213;-69
2021/11/21 04:38:14;;;;;;;13.13;9.67;;;9.60;99.90;;;;;;5014889;28;20223;-69
2021/11/21 04:40:43;;;;;;;14.07;10.00;;;9.60;99.90;;;;;;5022319;28;20207;-68
2021/11/21 04:43:11;;;;;;;14.10;10.20;;;9.60;99.90;;;;;;5026907;28;20249;-69
2021/11/21 04:45:38;;;;;;;12.60;9.80;;;9.60;99.90;;;;;;5013708;28;20221;-69
2021/11/21 04:48:05;;;;;;;14.23;9.43;;;9.60;99.90;;;;;;5020626;28;20198;-68
2021/11/21 04:50:33;;;;;;;15.70;9.90;;;9.60;99.90;;;;;;5026712;28;20246;-68
2021/11/21 04:53:00;;;;;;;13.90;9.77;;;9.50;99.90;;;;;;5013988;28;20267;-69
2021/11/21 04:55:26;;;;;;;14.27;9.33;;;9.50;99.90;;;;;;5026153;28;20215;-68
2021/11/21 04:57:55;;;;;;;13.30;9.07;;;9.50;99.90;;;;;;5019638;28;20653;-69
2021/11/21 05:00:22;;;;;;;14.50;9.97;;;9.60;99.90;;;;;;5027903;28;20263;-68
2021/11/21 05:02:52;;;;;;;15.17;10.23;;;9.50;99.90;;;;;;5025047;28;20234;-68
2021/11/21 05:05:21;;;;;;;15.27;9.70;;;9.50;99.90;;;;;;5015514;28;20296;-68
2021/11/21 05:07:49;;;;;;;14.30;9.73;;;9.50;99.90;;;;;;5022145;28;20754;-69
2021/11/21 05:10:16;;;;;;;14.03;9.77;;;9.60;99.90;;;;;;5017656;28;20211;-68
2021/11/21 05:12:44;;;;;;;15.77;10.53;;;9.50;99.90;;;;;;5024101;28;20326;-68
2021/11/21 05:15:15;;;;;;;16.50;10.60;;;9.50;99.90;;;;;;5027952;28;20211;-69
2021/11/21 05:17:45;;;;;;;14.47;10.30;;;9.50;99.90;;;;;;5016722;28;20213;-69
2021/11/21 05:20:13;;;;;;;14.43;10.00;;;9.50;99.90;;;;;;5032502;28;20306;-67
2021/11/21 05:22:40;;;;;;;15.13;10.10;;;9.50;99.90;;;;;;5026045;28;20419;-68
2021/11/21 05:25:08;;;;;;;12.57;8.80;;;9.50;99.90;;;;;;5023672;28;20211;-68
2021/11/21 05:27:35;;;;;;;15.57;10.10;;;9.50;99.90;;;;;;5027974;28;20704;-68
2021/11/21 05:30:02;;;;;;;13.53;9.00;;;9.50;99.90;;;;;;5014565;28;20247;-68
2021/11/21 05:32:31;;;;;;;16.53;10.00;;;9.50;99.90;;;;;;5016946;28;20266;-68
2021/11/21 05:34:57;;;;;;;15.13;10.40;;;9.50;99.90;;;;;;5026204;28;20274;-68
2021/11/21 05:37:24;;;;;;;13.27;9.47;;;9.50;99.90;;;;;;5026704;28;20298;-69
2021/11/21 05:39:51;;;;;;;13.27;9.20;;;9.40;99.90;;;;;;5018276;28;20318;-67
2021/11/21 05:42:18;;;;;;;15.23;9.90;;;9.50;99.90;;;;;;5018850;28;20657;-68
2021/11/21 05:44:45;;;;;;;14.90;10.40;;;9.50;99.90;;;;;;5026160;28;20202;-68
2021/11/21 05:47:12;;;;;;;16.30;10.37;;;9.50;99.90;;;;;;5026549;28;20238;-69
2021/11/21 05:49:40;;;;;;;14.03;8.77;;;9.40;99.90;;;;;;5014952;28;20246;-68
2021/11/21 05:52:08;;;;;;;14.83;9.37;;;9.40;99.90;;;;;;5021410;28;20627;-67
2021/11/21 05:54:35;;;;;;;15.93;10.60;;;9.40;99.90;;;;;;5032337;28;20289;-69
2021/11/21 05:57:02;;;;;;;15.27;10.10;;;9.40;99.90;;;;;;5013805;28;20262;-69
2021/11/21 05:59:29;;;;;;;14.50;10.10;;;9.40;99.90;;;;;;5013623;28;20603;-68
2021/11/21 06:01:56;;;;;;;17.63;10.03;;;9.40;99.90;;;;;;5015937;28;20249;-68
2021/11/21 06:04:22;;;;;;;13.67;9.73;;;9.40;99.90;;;;;;5022612;28;20242;-68
2021/11/21 06:06:51;;;;;;;13.60;9.73;;;9.40;99.90;;;;;;5015496;28;20282;-68
2021/11/21 06:09:18;;;;;;;16.20;10.70;;;9.40;99.90;;;;;;5023490;28;20238;-69
2021/11/21 06:11:45;;;;;;;12.40;9.10;;;9.40;99.90;;;;;;5014058;28;20242;-69
2021/11/21 06:14:12;;;;;;;16.27;10.17;;;9.40;99.90;;;;;;5020670;28;20210;-68
2021/11/21 06:16:39;;;;;;;13.70;9.57;;;9.40;99.90;;;;;;5018893;28;20219;-69
2021/11/21 06:19:06;;;;;;;15.97;9.87;;;9.40;99.90;;;;;;5026630;28;20314;-70
2021/11/21 06:21:34;;;;;;;11.50;8.67;;;9.40;99.90;;;;;;5016624;28;20211;-68
2021/11/21 06:24:02;;;;;;;14.80;9.93;;;9.40;99.90;;;;;;5029662;28;20290;-68
2021/11/21 06:26:29;;;;;;;14.70;10.03;;;9.40;99.90;;;;;;5021003;28;20218;-69
2021/11/21 06:28:57;;;;;;;13.93;9.57;;;9.40;99.90;;;;;;5016825;28;20298;-70
2021/11/21 06:31:24;;;;;;;16.57;10.03;;;9.40;99.90;;;;;;5016281;28;20550;-70
2021/11/21 06:33:51;;;;;;;15.77;10.60;;;9.40;99.90;;;;;;5015626;28;20246;-69
2021/11/21 06:36:18;;;;;;;13.77;9.77;;;9.30;99.90;;;;;;5017641;28;20623;-68
2021/11/21 06:38:45;;;;;;;15.50;9.73;;;9.30;99.90;;;;;;5020574;28;20286;-69
2021/11/21 06:41:13;;;;;;;13.27;9.63;;;9.30;99.90;;;;;;5025466;28;20238;-69
2021/11/21 06:43:40;;;;;;;15.50;10.13;;;9.40;99.90;;;;;;5024809;28;20254;-67
2021/11/21 06:46:07;;;;;;;13.80;9.60;;;9.30;99.90;;;;;;5025059;28;20235;-69
2021/11/21 06:48:36;;;;;;;11.47;8.60;;;9.30;99.90;;;;;;5014370;28;20277;-70
2021/11/21 06:51:04;;;;;;;14.30;9.40;;;9.30;99.90;;;;;;5027238;28;20207;-69
2021/11/21 06:53:31;;;;;;;13.83;10.23;;;9.40;99.90;;;;;;5032791;28;20306;-72
2021/11/21 06:55:58;;;;;;;16.03;10.40;;;9.30;99.90;;;;;;5023399;28;20287;-70
2021/11/21 06:58:27;;;;;;;14.70;9.70;;;9.40;99.90;;;;;;5021292;28;20318;-69
2021/11/21 07:00:54;;;;;;;15.67;9.37;;;9.40;99.90;;;;;;5025107;28;20242;-70
2021/11/21 07:03:21;;;;;;;17.10;10.70;;;9.30;99.90;;;;;;5023790;28;20211;-69
2021/11/21 07:05:48;;;;;;;15.57;9.70;;;9.30;99.90;;;;;;5021085;28;20219;-70
2021/11/21 07:08:16;;;;;;;14.03;9.77;;;9.30;99.90;;;;;;5020891;28;20237;-69
2021/11/21 07:10:43;;;;;;;15.53;10.37;;;9.30;99.90;;;;;;5018736;28;20222;-68
2021/11/21 07:13:10;;;;;;;17.57;10.43;;;9.40;99.90;;;;;;5021493;28;20613;-68
2021/11/21 07:15:38;;;;;;;16.47;10.30;;;9.30;99.90;;;;;;5023584;28;20239;-70
2021/11/21 07:18:05;;;;;;;14.60;10.40;;;9.30;99.90;;;;;;5029958;28;20340;-70
2021/11/21 07:20:32;;;;;;;15.83;10.03;;;9.40;99.90;;;;;;5024193;28;20630;-69
2021/11/21 07:22:59;;;;;;;16.30;10.83;;;9.40;99.90;;;;;;5016435;28;20215;-70
2021/11/21 07:25:28;;;;;;;15.80;10.67;;;9.30;99.90;;;;;;5017381;28;20199;-68
2021/11/21 07:27:55;;;;;;;17.10;10.60;;;9.40;99.90;;;;;;5016095;28;20678;-69
2021/11/21 07:30:23;;;;;;;15.67;10.83;;;9.40;99.90;;;;;;5017909;28;20253;-69
2021/11/21 07:32:53;;;;;;;16.70;11.00;;;9.40;99.90;;;;;;5027390;28;20549;-67
2021/11/21 07:35:21;;;;;;;15.17;10.17;;;9.40;99.90;;;;;;5025392;28;20238;-66
2021/11/21 07:37:49;;;;;;;17.73;11.50;;;9.30;99.90;;;;;;5024918;28;20243;-66
2021/11/21 07:40:16;;;;;;;16.70;11.37;;;9.40;99.90;;;;;;5014320;28;20288;-66
2021/11/21 07:42:45;;;;;;;15.30;11.23;;;9.30;99.90;;;;;;5016738;28;20262;-65
2021/11/21 07:45:13;;;;;;;15.23;10.27;;;9.30;99.90;;;;;;5028787;28;20206;-67
2021/11/21 07:47:40;;;;;;;16.70;11.07;;;9.30;99.90;;;;;;5015348;28;20231;-65
2021/11/21 07:50:10;;;;;;;18.90;10.47;;;9.30;99.90;;;;;;5022363;28;20221;-65
2021/11/21 07:52:37;;;;;;;16.33;10.60;;;9.30;99.90;;;;;;5028476;28;20250;-66
2021/11/21 07:55:05;;;;;;;17.73;11.10;;;9.30;99.90;;;;;;5019638;28;20667;-66
2021/11/21 07:57:32;;;;;;;17.30;11.73;;;9.20;99.90;;;;;;5031845;28;20230;-65
2021/11/21 07:59:59;;;;;;;16.50;11.43;;;9.20;99.90;;;;;;5018100;28;20282;-65
2021/11/21 08:02:26;;;;;;;17.40;11.40;;;9.20;99.90;;;;;;5022249;28;20285;-66
2021/11/21 08:04:53;;;;;;;15.63;11.27;;;9.20;99.90;;;;;;5018990;28;20299;-65
2021/11/21 08:07:21;;;;;;;17.60;11.13;;;9.20;99.90;;;;;;5019007;28;20274;-65
2021/11/21 08:09:48;;;;;;;18.47;11.80;;;9.20;99.90;;;;;;5028173;28;20226;-66
2021/11/21 08:12:15;;;;;;;15.37;10.13;;;9.20;99.90;;;;;;5017796;28;20768;-65
2021/11/21 08:14:42;;;;;;;16.40;10.67;;;9.20;99.90;;;;;;5025159;28;20309;-66
2021/11/21 08:17:09;;;;;;;20.57;11.73;;;9.20;99.90;;;;;;5019011;28;20294;-66
2021/11/21 08:19:37;;;;;;;15.63;11.33;;;9.30;99.90;;;;;;5023347;28;20230;-65
2021/11/21 08:22:04;;;;;;;17.30;11.37;;;9.20;99.90;;;;;;5017285;28;20262;-65
2021/11/21 08:24:32;;;;;;;16.97;11.07;;;9.20;99.90;;;;;;5013954;28;20213;-67
2021/11/21 08:26:59;;;;;;;19.50;12.07;;;9.30;99.90;;;;;;5014291;28;20275;-66
2021/11/21 08:29:26;;;;;;;17.77;11.53;;;9.20;99.90;;;;;;5015407;28;20242;-69
2021/11/21 08:31:54;;;;;;;18.83;11.53;;;9.30;99.90;;;;;;5014005;28;20254;-65
2021/11/21 08:34:21;;;;;;;16.00;11.10;;;9.20;99.90;;;;;;5030249;28;20242;-65
2021/11/21 08:36:49;;;;;;;18.60;12.10;;;9.30;99.90;;;;;;5022922;28;20242;-65
2021/11/21 08:39:17;;;;;;;15.57;10.93;;;9.30;99.90;;;;;;5029335;28;20611;-65
2021/11/21 08:41:45;;;;;;;18.23;12.00;;;9.30;99.90;;;;;;5030344;28;20213;-64
2021/11/21 08:44:12;;;;;;;17.90;12.17;;;9.30;99.90;;;;;;5016808;28;20249;-66
2021/11/21 08:46:39;;;;;;;18.13;11.30;;;9.40;99.90;;;;;;5027248;28;20289;-66
2021/11/21 08:49:06;;;;;;;15.17;10.43;;;9.40;99.90;;;;;;5027767;28;20234;-66
2021/11/21 08:51:33;;;;;;;18.03;11.37;;;9.40;99.90;;;;;;5026174;28;20301;-66
2021/11/21 08:54:00;;;;;;;14.87;10.77;;;9.40;99.90;;;;;;5024921;28;20266;-66
2021/11/21 08:56:27;;;;;;;15.30;10.77;;;9.40;99.90;;;;;;5014292;28;20250;-67
2021/11/21 08:58:55;;;;;;;15.53;11.20;;;9.40;99.90;;;;;;5024832;28;20241;-66
2021/11/21 09:01:22;;;;;;;18.57;12.03;;;9.50;99.90;;;;;;5027014;28;20234;-65
2021/11/21 09:03:49;;;;;;;17.27;11.23;;;9.50;99.90;;;;;;5027981;28;20237;-67
2021/11/21 09:06:16;;;;;;;16.43;10.97;;;9.50;99.90;;;;;;5019713;28;20273;-69
2021/11/21 09:08:43;;;;;;;16.43;11.57;;;9.60;99.90;;;;;;5016583;28;20257;-68
2021/11/21 09:11:10;;;;;;;17.40;12.00;;;9.60;99.90;;;;;;5024145;28;20260;-68
2021/11/21 09:13:37;;;;;;;16.33;11.43;;;9.60;99.90;;;;;;5016566;28;20334;-67
2021/11/21 09:16:08;;;;;;;15.90;10.90;;;9.60;99.90;;;;;;5020886;28;20301;-68
2021/11/21 09:18:35;;;;;;;16.53;10.83;;;9.60;99.90;;;;;;5013169;28;20700;-65
2021/11/21 09:21:03;;;;;;;18.17;11.47;;;9.70;99.90;;;;;;5015405;28;20317;-67
2021/11/21 09:23:30;;;;;;;18.33;11.13;;;9.70;99.90;;;;;;5015457;28;20789;-67
2021/11/21 09:25:57;;;;;;;15.53;11.00;;;9.70;99.90;;;;;;5019328;28;20265;-67
2021/11/21 09:28:25;;;;;;;16.77;11.73;;;9.70;99.90;;;;;;5022292;28;20204;-66
2021/11/21 09:30:53;;;;;;;16.53;10.73;;;9.70;99.90;;;;;;5015816;28;20289;-66
2021/11/21 09:33:22;;;;;;;15.77;10.33;;;9.70;99.90;;;;;;5015472;28;20293;-67
2021/11/21 09:35:49;;;;;;;17.83;10.87;;;9.70;99.90;;;;;;5027033;28;20230;-67
2021/11/21 09:38:19;;;;;;;16.00;11.40;;;9.70;99.90;;;;;;5022547;28;20245;-68
2021/11/21 09:40:46;;;;;;;15.30;10.90;;;9.70;99.90;;;;;;5019353;28;20687;-67
2021/11/21 09:43:13;;;;;;;15.37;10.67;;;9.70;99.90;;;;;;5020737;28;20242;-65
2021/11/21 09:45:40;;;;;;;15.37;11.30;;;9.70;99.90;;;;;;5019751;28;20738;-67
2021/11/21 09:48:08;;;;;;;15.00;10.40;;;9.70;99.90;;;;;;5021924;28;20648;-67
2021/11/21 09:50:40;;;;;;;15.37;11.27;;;9.70;99.90;;;;;;5027449;28;20555;-65
2021/11/21 09:53:07;;;;;;;17.80;11.23;;;9.70;99.90;;;;;;5016281;28;20318;-64
2021/11/21 09:55:35;;;;;;;15.60;10.37;;;9.70;99.90;;;;;;5011061;28;20215;-65
2021/11/21 09:58:02;;;;;;;15.20;10.33;;;9.80;99.90;;;;;;5022270;28;20261;-63
2021/11/21 10:00:30;;;;;;;14.43;10.47;;;9.70;99.90;;;;;;5012513;28;20314;-64
2021/11/21 10:03:03;;;;;;;16.17;10.83;;;9.80;99.90;;;;;;5012650;28;20241;-66
2021/11/21 10:05:32;;;;;;;14.17;10.07;;;9.80;99.90;;;;;;5013708;28;20625;-66
2021/11/21 10:08:06;;;;;;;15.87;10.67;;;9.80;99.90;;;;;;5012283;28;20275;-68
2021/11/21 10:10:40;;;;;;;16.57;10.67;;;9.80;99.90;;;;;;5025322;28;20242;-67
2021/11/21 10:13:22;;;;;;;17.00;10.53;;;9.80;99.90;;;;;;5028922;28;20270;-66
2021/11/21 10:15:49;;;;;;;15.43;10.23;;;9.80;99.90;;;;;;5014404;28;20653;-69
2021/11/21 10:18:17;;;;;;;14.47;10.17;;;9.70;99.90;;;;;;5012951;28;20684;-65
2021/11/21 10:20:44;;;;;;;13.37;10.00;;;9.70;99.90;;;;;;5016170;28;20237;-66
2021/11/21 10:23:12;;;;;;;15.53;10.20;;;9.70;99.90;;;;;;5013030;28;20227;-67
2021/11/21 10:25:51;;;;;;;14.83;10.20;;;9.80;99.90;;;;;;5015959;28;20214;-66
2021/11/21 10:28:23;;;;;;;15.00;10.57;;;9.80;99.90;;;;;;5017175;28;20206;-67
2021/11/21 10:31:10;;;;;;;16.43;11.13;;;9.80;99.90;;;;;;5017408;28;20223;-67
2021/11/21 10:33:39;;;;;;;14.57;10.00;;;9.80;99.90;;;;;;5028045;28;20199;-66
2021/11/21 10:36:08;;;;;;;18.23;11.93;;;9.90;99.90;;;;;;5033681;28;20246;-66
2021/11/21 10:38:43;;;;;;;16.07;11.43;;;9.90;99.90;;;;;;5024810;28;20206;-67
2021/11/21 10:41:13;;;;;;;16.93;11.97;;;9.90;99.90;;;;;;5015557;28;20623;-67
2021/11/21 10:43:49;;;;;;;16.47;11.50;;;9.90;99.90;;;;;;5028339;28;20210;-65
2021/11/21 10:46:38;;;;;;;16.27;11.03;;;9.90;99.90;;;;;;5014475;28;20199;-66
2021/11/21 10:49:18;;;;;;;19.30;12.40;;;9.90;99.90;;;;;;5022355;28;20354;-66
2021/11/21 10:51:46;;;;;;;17.67;12.10;;;9.90;99.90;;;;;;5027616;28;20309;-65
2021/11/21 10:54:27;;;;;;;18.37;11.87;;;9.90;99.90;;;;;;5028607;28;20281;-67
2021/11/21 10:56:56;;;;;;;16.70;11.43;;;9.90;99.90;;;;;;5029514;28;20266;-66
2021/11/21 10:59:35;;;;;;;17.40;11.37;;;9.90;99.90;;;;;;5013393;28;20270;-66
2021/11/21 11:02:07;;;;;;;16.97;11.80;;;9.90;99.90;;;;;;5019785;28;20301;-66
2021/11/21 11:04:34;;;;;;;17.43;11.63;;;9.90;99.90;;;;;;5022241;28;20294;-66
2021/11/21 11:07:17;;;;;;;16.30;11.03;;;9.90;99.90;;;;;;5014107;28;20305;-67
2021/11/21 11:09:46;;;;;;;17.93;11.10;;;9.90;99.90;;;;;;5014339;28;20203;-66
2021/11/21 11:12:13;;;;;;;16.07;11.43;;;9.90;99.90;;;;;;5014624;28;20235;-66
2021/11/21 11:14:40;;;;;;;15.70;10.77;;;9.90;99.90;;;;;;5028706;28;20694;-67
2021/11/21 11:17:07;;;;;;;15.63;11.47;;;9.90;99.90;;;;;;5031568;28;20203;-67
2021/11/21 11:19:36;;;;;;;17.23;11.23;;;9.80;99.90;;;;;;5014486;28;20249;-66
2021/11/21 11:22:05;;;;;;;15.83;11.63;;;9.80;99.90;;;;;;5017132;28;20269;-66
2021/11/21 11:24:35;;;;;;;16.93;11.30;;;9.80;99.90;;;;;;5022142;28;20348;-65
2021/11/21 11:27:13;;;;;;;15.90;11.50;;;9.80;99.90;;;;;;5019489;28;20694;-65
2021/11/21 11:29:49;;;;;;;18.73;11.77;;;9.70;99.90;;;;;;5025000;28;20211;-67
2021/11/21 11:32:25;;;;;;;18.30;11.87;;;9.70;99.90;;;;;;5015855;28;20238;-66
2021/11/21 11:34:53;;;;;;;17.77;11.73;;;9.70;99.90;;;;;;5024077;28;20195;-67
2021/11/21 11:37:40;;;;;;;17.70;11.60;;;9.80;99.90;;;;;;5028728;28;20207;-68
2021/11/21 11:40:53;;;;;;;20.17;12.27;;;9.80;99.90;;;;;;5022617;28;20223;-65
2021/11/21 11:43:43;;;;;;;18.70;11.07;;;9.80;99.90;;;;;;5019883;28;20790;-66
2021/11/21 11:46:27;;;;;;;17.60;12.60;;;9.80;99.90;;;;;;5013639;28;20283;-67
2021/11/21 11:48:56;;;;;;;18.27;11.73;;;9.80;99.90;;;;;;5013916;28;20672;-67
2021/11/21 11:51:49;;;;;;;20.00;12.80;;;9.80;99.90;;;;;;5021307;28;20238;-65
2021/11/21 11:54:24;;;;;;;17.93;12.17;;;9.70;99.90;;;;;;5012851;28;20213;-66
2021/11/21 11:56:55;;;;;;;20.30;12.47;;;9.70;99.90;;;;;;5022537;28;20226;-66
2021/11/21 11:59:30;;;;;;;17.70;12.07;;;9.70;99.90;;;;;;5022316;28;20639;-66
2021/11/21 12:02:03;;;;;;;18.93;13.33;;;9.80;99.90;;;;;;5019271;28;20230;-68
2021/11/21 12:04:54;;;;;;;20.00;12.97;;;9.70;99.90;;;;;;5012022;28;20289;-68
2021/11/21 12:07:25;;;;;;;19.67;12.77;;;9.70;99.90;;;;;;5018976;28;20231;-67
2021/11/21 12:09:58;;;;;;;19.37;12.00;;;9.70;99.90;;;;;;5014967;28;20334;-68
2021/11/21 12:12:54;;;;;;;18.43;12.07;;;9.70;99.90;;;;;;5015439;28;20590;-67
2021/11/21 12:15:29;;;;;;;21.63;14.03;;;9.70;99.90;;;;;;5025589;28;20226;-67
2021/11/21 12:17:58;;;;;;;25.27;13.63;;;9.70;99.90;;;;;;5012633;28;20286;-66
2021/11/21 12:20:50;;;;;;;18.43;13.33;;;9.60;99.90;;;;;;5022157;28;20219;-68
2021/11/21 12:23:50;;;;;;;20.73;13.73;;;9.60;99.90;;;;;;5015018;28;20203;-68
2021/11/21 12:26:25;;;;;;;19.77;13.43;;;9.60;99.90;;;;;;5018326;28;20616;-67
2021/11/21 12:29:24;;;;;;;21.53;13.30;;;9.60;99.90;;;;;;5017989;28;20347;-68
2021/11/21 12:31:54;;;;;;;22.57;14.20;;;9.60;99.90;;;;;;5019484;28;20203;-67
2021/11/21 12:34:43;;;;;;;22.30;14.63;;;9.60;99.90;;;;;;5013435;28;20226;-68
2021/11/21 12:37:15;;;;;;;21.17;13.17;;;9.60;99.90;;;;;;5020019;28;20622;-68
2021/11/21 12:39:44;;;;;;;20.53;13.53;;;9.60;99.90;;;;;;5027592;28;20234;-67
2021/11/21 12:42:13;;;;;;;19.47;13.00;;;9.60;99.90;;;;;;5011798;28;20267;-65
2021/11/21 12:44:41;;;;;;;22.23;14.30;;;9.60;99.90;;;;;;5015177;28;20219;-67
2021/11/21 12:47:11;;;;;;;23.47;14.37;;;9.60;99.90;;;;;;5011943;28;20290;-68
2021/11/21 12:49:40;;;;;;;22.30;13.43;;;9.60;99.90;;;;;;5012868;28;20238;-66